Time;durP1;ratioP1;P1;durP2;ratioP2;P2;SDS_P1;SDS_P2;PMS_P1;PMS_P2;Temp;Humidity;BMP_temperature;BMP_pressure;BME280_temperature;BME280_humidity;BME280_pressure;Samples;Min_cycle;Max_cycle;Signal;HPM_P1;HPM_P2
2023/01/29 00:01:52;;;;;;;32.20;20.90;;;;;;;-2.99;100.00;102904.94;5241877;28;20029;-71
2023/01/29 00:04:24;;;;;;;29.08;21.05;;;;;;;-3.02;100.00;102907.25;5241636;28;20108;-70
2023/01/29 00:06:55;;;;;;;30.47;20.47;;;;;;;-2.92;100.00;102898.63;5242316;28;20047;-72
2023/01/29 00:09:27;;;;;;;36.60;23.10;;;;;;;-2.78;100.00;102895.47;5242046;28;20037;-72
2023/01/29 00:11:59;;;;;;;29.23;20.67;;;;;;;-2.72;100.00;102893.38;5241898;28;20037;-72
2023/01/29 00:14:30;;;;;;;31.27;21.67;;;;;;;-2.63;100.00;102888.06;5241792;28;20042;-72
2023/01/29 00:17:01;;;;;;;27.23;19.37;;;;;;;-2.59;100.00;102887.53;5242205;28;20038;-72
2023/01/29 00:19:33;;;;;;;27.83;20.13;;;;;;;-2.54;100.00;102892.94;5242255;28;20380;-72
2023/01/29 00:22:04;;;;;;;27.97;20.50;;;;;;;-2.52;100.00;102878.66;5242871;28;20123;-70
2023/01/29 00:24:35;;;;;;;31.70;21.63;;;;;;;-2.45;100.00;102874.09;5246796;28;20026;-71
2023/01/29 00:27:07;;;;;;;30.23;21.70;;;;;;;-2.42;100.00;102878.53;5246025;28;20029;-71
2023/01/29 00:29:38;;;;;;;28.03;20.80;;;;;;;-2.40;100.00;102871.88;5244765;28;20112;-72
2023/01/29 00:32:10;;;;;;;32.53;21.67;;;;;;;-2.36;100.00;102875.56;5246174;28;20104;-71
2023/01/29 00:34:41;;;;;;;30.40;21.50;;;;;;;-2.38;100.00;102875.47;5246025;28;20033;-71
2023/01/29 00:37:12;;;;;;;30.80;21.67;;;;;;;-2.38;100.00;102866.13;5246466;28;20049;-71
2023/01/29 00:39:44;;;;;;;29.67;19.90;;;;;;;-2.40;100.00;102866.78;5246434;28;20022;-72
2023/01/29 00:45:05;;;;;;;27.77;19.30;;;;;;;-2.41;100.00;102865.88;5246038;28;20477;-70
2023/01/29 00:47:37;;;;;;;28.15;20.38;;;;;;;-2.39;100.00;102859.22;5245845;28;20038;-71
2023/01/29 00:50:10;;;;;;;30.40;21.23;;;;;;;-2.41;100.00;102854.78;5245698;28;20053;-72
2023/01/29 00:52:42;;;;;;;26.40;18.48;;;;;;;-2.45;100.00;102848.53;5245475;28;20029;-71
2023/01/29 00:55:13;;;;;;;30.67;21.67;;;;;;;-2.48;100.00;102843.25;5245860;28;20084;-71
2023/01/29 00:57:45;;;;;;;29.37;21.57;;;;;;;-2.51;100.00;102839.56;5245606;28;20080;-71
2023/01/29 01:00:17;;;;;;;27.73;19.63;;;;;;;-2.53;100.00;102833.44;5246033;28;20042;-72
2023/01/29 01:03:04;;;;;;;27.52;19.17;;;;;;;-2.60;100.00;102832.13;5245397;28;20457;-71
2023/01/29 01:05:37;;;;;;;27.38;20.52;;;;;;;-2.59;100.00;102826.25;5245373;28;20034;-71
2023/01/29 01:11:05;;;;;;;32.08;21.60;;;;;;;-2.69;100.00;102826.31;5245834;28;20077;-72
2023/01/29 01:13:36;;;;;;;29.50;21.05;;;;;;;-2.73;100.00;102830.31;5245932;28;20492;-71
2023/01/29 01:16:09;;;;;;;28.27;20.77;;;;;;;-2.72;100.00;102836.31;5245137;28;20065;-72
2023/01/29 01:18:41;;;;;;;29.20;19.33;;;;;;;-2.71;100.00;102832.97;5245649;28;20060;-72
2023/01/29 01:21:12;;;;;;;33.93;21.07;;;;;;;-2.71;100.00;102841.53;5243867;28;20033;-72
2023/01/29 01:23:43;;;;;;;30.50;20.73;;;;;;;-2.76;100.00;102842.84;5245123;28;20563;-71
2023/01/29 01:26:15;;;;;;;28.47;20.40;;;;;;;-2.71;100.00;102835.53;5244624;28;20034;-71
2023/01/29 01:28:46;;;;;;;32.23;20.97;;;;;;;-2.72;100.00;102837.22;5245026;28;20033;-71
2023/01/29 01:31:18;;;;;;;29.87;20.63;;;;;;;-2.73;100.00;102835.41;5244907;28;20489;-71
2023/01/29 01:33:50;;;;;;;29.07;20.43;;;;;;;-2.69;100.00;102841.63;5243617;28;20089;-70
2023/01/29 01:36:21;;;;;;;30.25;21.85;;;;;;;-2.71;100.00;102845.75;5244697;28;20077;-71
2023/01/29 01:38:53;;;;;;;33.80;20.80;;;;;;;-2.72;100.00;102843.97;5244733;28;20433;-71
2023/01/29 01:41:25;;;;;;;34.00;21.33;;;;;;;-2.79;100.00;102840.06;5244959;28;20061;-71
2023/01/29 01:44:01;;;;;;;33.50;22.03;;;;;;;-2.86;100.00;102843.81;5243796;28;20037;-71
2023/01/29 01:46:36;;;;;;;33.35;21.88;;;;;;;-2.96;100.00;102844.81;5244552;28;20028;-71
2023/01/29 01:49:15;;;;;;;31.13;20.42;;;;;;;-3.02;100.00;102834.13;5244485;28;20068;-71
2023/01/29 01:51:50;;;;;;;30.73;22.33;;;;;;;-3.04;100.00;102834.78;5243185;28;20066;-71
2023/01/29 01:54:29;;;;;;;32.95;22.27;;;;;;;-3.12;100.00;102827.44;5244499;28;20036;-71
2023/01/29 01:57:14;;;;;;;33.33;21.98;;;;;;;-3.14;100.00;102828.09;5244921;28;20033;-71
2023/01/29 01:59:51;;;;;;;33.13;23.38;;;;;;;-3.18;100.00;102834.63;5244443;28;20026;-71
2023/01/29 02:10:54;;;;;;;36.35;23.23;;;;;;;-3.26;100.00;102850.13;5243868;28;20045;-71
2023/01/29 02:13:25;;;;;;;35.83;23.55;;;;;;;-3.34;100.00;102837.66;5244638;28;20517;-71
2023/01/29 02:15:57;;;;;;;34.73;24.13;;;;;;;-3.27;100.00;102841.56;5243574;28;20182;-71
2023/01/29 02:18:28;;;;;;;36.00;24.97;;;;;;;-3.28;100.00;102841.44;5244229;28;20400;-71
2023/01/29 02:21:11;;;;;;;35.07;24.87;;;;;;;-3.28;100.00;102838.91;5244237;28;20156;-72
2023/01/29 02:24:22;;;;;;;35.55;24.33;;;;;;;-3.31;100.00;102850.66;5244486;28;20104;-71
2023/01/29 02:27:31;;;;;;;36.67;23.55;;;;;;;-3.26;100.00;102857.78;5243737;28;20488;-71
2023/01/29 02:30:12;;;;;;;35.95;23.95;;;;;;;-3.21;100.00;102852.25;5243501;28;20025;-71
2023/01/29 02:32:58;;;;;;;39.67;26.63;;;;;;;-3.19;100.00;102847.25;5243992;28;20417;-71
2023/01/29 02:35:49;;;;;;;37.72;25.10;;;;;;;-3.13;100.00;102852.84;5243447;28;20041;-71
2023/01/29 02:38:39;;;;;;;39.92;26.30;;;;;;;-3.02;100.00;102857.09;5243603;28;20033;-71
2023/01/29 02:41:54;;;;;;;42.80;26.52;;;;;;;-2.94;100.00;102855.13;5243339;28;20045;-71
2023/01/29 02:44:43;;;;;;;38.42;25.63;;;;;;;-2.88;100.00;102852.13;5243046;28;20345;-72
2023/01/29 02:47:40;;;;;;;37.90;24.45;;;;;;;-2.82;100.00;102848.41;5241827;28;20037;-72
2023/01/29 02:50:19;;;;;;;36.65;25.05;;;;;;;-2.76;100.00;102851.38;5242321;28;20029;-72
2023/01/29 02:53:19;;;;;;;38.75;26.10;;;;;;;-2.73;100.00;102849.84;5243379;28;20033;-72
2023/01/29 02:55:58;;;;;;;36.53;24.95;;;;;;;-2.68;100.00;102849.41;5242592;28;20046;-73
2023/01/29 02:58:37;;;;;;;37.88;25.83;;;;;;;-2.62;100.00;102844.78;5243380;28;20514;-72
2023/01/29 03:01:17;;;;;;;38.03;25.75;;;;;;;-2.54;100.00;102842.78;5241831;28;20048;-73
2023/01/29 03:03:54;;;;;;;33.67;22.40;;;;;;;-2.49;100.00;102835.47;5242311;28;20457;-72
2023/01/29 03:06:32;;;;;;;37.45;24.98;;;;;;;-2.46;100.00;102846.78;5241615;28;20033;-72
2023/01/29 03:09:25;;;;;;;38.65;25.27;;;;;;;-2.43;100.00;102844.47;5243250;28;20060;-72
2023/01/29 03:12:17;;;;;;;34.97;24.85;;;;;;;-2.38;100.00;102847.34;5242517;28;20074;-73
2023/01/29 03:18:02;;;;;;;35.33;24.33;;;;;;;-2.29;100.00;102839.47;5241812;28;20732;-73
2023/01/29 03:20:47;;;;;;;34.83;24.02;;;;;;;-2.26;100.00;102844.78;5244742;28;20030;-73
2023/01/29 03:23:37;;;;;;;34.58;24.83;;;;;;;-2.26;100.00;102843.13;5248006;28;20346;-73
2023/01/29 03:32:02;;;;;;;34.35;23.13;;;;;;;-2.21;100.00;102833.25;5243051;28;20041;-73
2023/01/29 03:34:42;;;;;;;36.42;25.20;;;;;;;-2.21;100.00;102839.25;5243213;28;20033;-73
2023/01/29 03:37:24;;;;;;;33.88;22.80;;;;;;;-2.15;100.00;102826.03;5243053;28;20052;-73
2023/01/29 03:39:56;;;;;;;35.95;23.83;;;;;;;-2.13;100.00;102837.22;5243169;28;20030;-73
2023/01/29 03:42:43;;;;;;;34.90;24.60;;;;;;;-2.09;100.00;102831.56;5242777;28;20037;-72
2023/01/29 03:45:17;;;;;;;33.08;23.58;;;;;;;-2.07;100.00;102829.13;5242454;28;20052;-71
2023/01/29 03:48:09;;;;;;;32.47;22.95;;;;;;;-2.03;100.00;102841.34;5242662;28;20076;-71
2023/01/29 03:51:00;;;;;;;32.95;23.77;;;;;;;-2.01;100.00;102832.13;5241879;28;20080;-72
2023/01/29 03:54:16;;;;;;;35.55;23.02;;;;;;;-1.97;100.00;102821.34;5240657;28;20033;-72
2023/01/29 03:56:56;;;;;;;31.45;23.02;;;;;;;-1.93;100.00;102810.56;5241592;28;20042;-72
2023/01/29 03:59:40;;;;;;;33.13;23.75;;;;;;;-1.93;100.00;102809.66;5243013;28;20118;-72
2023/01/29 04:02:26;;;;;;;34.33;23.92;;;;;;;-1.90;100.00;102810.78;5242357;28;20040;-72
2023/01/29 04:05:12;;;;;;;33.78;22.65;;;;;;;-1.89;100.00;102812.53;5242529;28;20143;-72
2023/01/29 04:07:45;;;;;;;34.97;23.70;;;;;;;-1.87;100.00;102813.56;5242629;28;20037;-72
2023/01/29 04:10:18;;;;;;;;;;;;;;;-1.80;100.00;102807.19;5242445;28;20112;-72
2023/01/29 04:12:58;;;;;;;32.75;23.23;;;;;;;-1.82;100.00;102801.06;5241312;28;19913;-72
2023/01/29 04:15:34;;;;;;;31.83;23.33;;;;;;;-1.83;100.00;102797.63;5241974;28;20487;-72
2023/01/29 04:18:05;;;;;;;30.33;22.02;;;;;;;-1.83;100.00;102792.53;5242032;28;20140;-72
2023/01/29 04:20:37;;;;;;;32.53;24.03;;;;;;;-1.78;100.00;102795.41;5224215;28;20120;-72
2023/01/29 04:23:20;;;;;;;35.13;24.53;;;;;;;-1.77;100.00;102798.84;5241891;28;20029;-72
2023/01/29 04:26:13;;;;;;;33.95;24.10;;;;;;;-1.72;100.00;102789.84;5242015;28;20030;-72
2023/01/29 04:28:58;;;;;;;34.10;24.35;;;;;;;-1.72;100.00;102790.72;5241748;28;20029;-72
2023/01/29 04:31:42;;;;;;;34.80;24.52;;;;;;;-1.70;100.00;102785.72;5241424;28;20030;-72
2023/01/29 04:34:27;;;;;;;33.58;23.48;;;;;;;-1.65;100.00;102797.16;5241976;28;20461;-72
2023/01/29 04:37:06;;;;;;;33.30;24.13;;;;;;;-1.59;100.00;102792.47;5241918;28;20072;-72
2023/01/29 04:39:47;;;;;;;34.53;23.27;;;;;;;-1.57;100.00;102793.44;5244053;28;20048;-72
2023/01/29 04:42:43;;;;;;;34.35;23.92;;;;;;;-1.53;100.00;102795.44;5241953;28;20033;-72
2023/01/29 04:45:29;;;;;;;38.17;24.83;;;;;;;-1.50;100.00;102788.00;5242161;28;20060;-72
2023/01/29 04:48:24;;;;;;;35.53;25.30;;;;;;;-1.47;100.00;102777.06;5241864;28;20036;-72
2023/01/29 04:51:08;;;;;;;35.58;24.90;;;;;;;-1.49;100.00;102770.97;5241777;28;20057;-72
2023/01/29 04:54:05;;;;;;;34.17;25.45;;;;;;;-1.47;100.00;102765.16;5241678;28;20087;-72
2023/01/29 04:56:57;;;;;;;35.05;26.33;;;;;;;-1.46;100.00;102758.38;5241649;28;20033;-72
2023/01/29 04:59:44;;;;;;;34.42;25.67;;;;;;;-1.47;100.00;102754.91;5240605;28;20030;-72
2023/01/29 05:02:18;;;;;;;37.20;25.63;;;;;;;-1.45;100.00;102749.03;5241503;28;20105;-72
2023/01/29 05:04:50;;;;;;;39.13;27.25;;;;;;;-1.43;100.00;102742.34;5241474;28;20029;-72
2023/01/29 05:07:25;;;;;;;37.43;26.17;;;;;;;-1.41;100.00;102744.22;5241431;28;20029;-72
2023/01/29 05:09:56;;;;;;;36.90;25.55;;;;;;;-1.37;100.00;102756.47;5245108;28;20033;-72
2023/01/29 05:12:30;;;;;;;38.43;26.27;;;;;;;-1.31;100.00;102743.19;5245345;28;20500;-72
2023/01/29 05:15:08;;;;;;;37.70;25.08;;;;;;;-1.27;100.00;102739.13;5244034;28;20037;-71
2023/01/29 05:17:39;;;;;;;41.70;26.77;;;;;;;-1.27;100.00;102747.72;5245708;28;20030;-71
2023/01/29 05:20:11;;;;;;;37.20;25.33;;;;;;;-1.27;100.00;102740.06;5246436;28;20052;-73
2023/01/29 05:22:44;;;;;;;38.92;26.75;;;;;;;-1.28;100.00;102738.25;5244363;28;20026;-72
2023/01/29 05:25:22;;;;;;;39.03;26.60;;;;;;;-1.27;100.00;102744.25;5244087;28;20365;-72
2023/01/29 05:28:03;;;;;;;36.88;25.80;;;;;;;-1.26;100.00;102739.25;5245289;28;20136;-73
2023/01/29 05:30:37;;;;;;;37.38;25.88;;;;;;;-1.27;100.00;102732.38;5245030;28;20034;-73
2023/01/29 05:33:21;;;;;;;37.60;26.45;;;;;;;-1.26;100.00;102725.56;5244822;28;20021;-73
2023/01/29 05:35:54;;;;;;;38.28;26.80;;;;;;;-1.25;100.00;102728.25;5244559;28;20045;-74
2023/01/29 05:38:25;;;;;;;;;;;;;;;-1.22;100.00;102719.84;5245546;28;20045;-73
2023/01/29 05:40:58;;;;;;;37.95;25.15;;;;;;;-1.26;100.00;102725.56;5245288;28;19917;-73
2023/01/29 05:43:30;;;;;;;38.05;26.77;;;;;;;-1.24;100.00;102732.59;5243552;28;20029;-72
2023/01/29 05:46:01;;;;;;;39.72;27.45;;;;;;;-1.20;100.00;102733.66;5245178;28;20029;-73
2023/01/29 05:48:33;;;;;;;40.73;27.83;;;;;;;-1.18;100.00;102732.97;5245157;28;20041;-73
2023/01/29 05:51:04;;;;;;;43.73;30.37;;;;;;;-1.18;100.00;102740.63;5244610;28;20480;-73
2023/01/29 05:53:36;;;;;;;39.57;27.60;;;;;;;-1.17;100.00;102736.44;5244513;28;20038;-72
2023/01/29 05:56:07;;;;;;;40.43;28.57;;;;;;;-1.14;100.00;102736.63;5244400;28;20033;-72
2023/01/29 05:58:38;;;;;;;37.87;26.47;;;;;;;-1.13;100.00;102739.31;5245317;28;20033;-72
2023/01/29 06:01:16;;;;;;;40.87;29.07;;;;;;;-1.11;100.00;102740.28;5244333;28;20029;-72
2023/01/29 06:03:47;;;;;;;39.65;28.23;;;;;;;-1.09;100.00;102742.94;5244226;28;20152;-72
2023/01/29 06:06:18;;;;;;;37.37;27.57;;;;;;;-1.08;100.00;102725.91;5242927;28;20183;-72
2023/01/29 06:08:50;;;;;;;41.50;28.90;;;;;;;-1.07;100.00;102743.91;5244192;28;20060;-72
2023/01/29 06:11:21;;;;;;;40.87;29.77;;;;;;;-1.04;100.00;102745.81;5243772;28;20037;-72
2023/01/29 06:13:53;;;;;;;40.27;28.90;;;;;;;-1.03;100.00;102751.03;5244110;28;20073;-71
2023/01/29 06:16:24;;;;;;;42.10;31.30;;;;;;;-1.01;100.00;102738.34;5243961;28;20455;-72
2023/01/29 06:18:55;;;;;;;42.93;30.50;;;;;;;-1.00;100.00;102750.34;5243599;28;20057;-71
2023/01/29 06:21:27;;;;;;;39.37;29.07;;;;;;;-0.99;100.00;102757.25;5243316;28;20522;-72
2023/01/29 06:23:58;;;;;;;46.77;30.47;;;;;;;-0.95;100.00;102764.31;5242639;28;20045;-72
2023/01/29 06:26:30;;;;;;;39.17;29.63;;;;;;;-0.96;100.00;102777.91;5244096;28;20492;-72
2023/01/29 06:29:01;;;;;;;41.13;29.40;;;;;;;-0.95;100.00;102767.78;5252449;28;20030;-72
2023/01/29 06:31:32;;;;;;;43.00;29.47;;;;;;;-0.92;100.00;102767.06;5256960;28;20065;-72
2023/01/29 06:34:04;;;;;;;42.33;30.67;;;;;;;-0.92;100.00;102755.19;5254487;28;20029;-73
2023/01/29 06:36:36;;;;;;;44.53;30.77;;;;;;;-0.92;100.00;102739.81;5244658;28;20492;-72
2023/01/29 06:39:07;;;;;;;40.83;29.83;;;;;;;-0.87;100.00;102727.34;5243646;28;20037;-72
2023/01/29 06:41:39;;;;;;;43.53;31.37;;;;;;;-0.88;100.00;102719.53;5243194;28;20120;-72
2023/01/29 06:44:10;;;;;;;42.93;30.53;;;;;;;-0.89;100.00;102715.19;5242437;28;20040;-73
2023/01/29 06:46:42;;;;;;;41.93;28.97;;;;;;;-0.86;100.00;102725.66;5243661;28;20104;-73
2023/01/29 06:49:13;;;;;;;40.73;29.93;;;;;;;-0.85;100.00;102735.09;5244202;28;20030;-73
2023/01/29 06:51:45;;;;;;;42.47;29.17;;;;;;;-0.87;100.00;102731.53;5243169;28;20025;-72
2023/01/29 06:54:16;;;;;;;38.67;29.77;;;;;;;-0.85;100.00;102717.16;5243505;28;20364;-72
2023/01/29 06:56:48;;;;;;;43.70;30.43;;;;;;;-0.82;100.00;102719.91;5243351;28;20112;-72
2023/01/29 06:59:19;;;;;;;40.73;29.03;;;;;;;-0.83;100.00;102711.34;5243678;28;20049;-74
2023/01/29 07:01:50;;;;;;;42.93;29.40;;;;;;;-0.83;100.00;102707.94;5243281;28;20036;-72
2023/01/29 07:04:22;;;;;;;39.60;29.23;;;;;;;-0.83;100.00;102721.59;5243245;28;20030;-72
2023/01/29 07:06:53;;;;;;;42.97;30.67;;;;;;;-0.80;100.00;102715.81;5241926;28;20064;-72
2023/01/29 07:09:24;;;;;;;41.50;29.63;;;;;;;-0.83;100.00;102715.59;5243203;28;20025;-72
2023/01/29 07:11:56;;;;;;;40.23;29.93;;;;;;;-0.82;100.00;102717.34;5242928;28;20120;-73
2023/01/29 07:14:27;;;;;;;40.03;30.77;;;;;;;-0.83;100.00;102718.16;5243103;28;20087;-73
2023/01/29 07:16:59;;;;;;;44.87;30.33;;;;;;;-0.82;100.00;102717.34;5244062;28;20108;-72
2023/01/29 07:19:30;;;;;;;40.53;29.60;;;;;;;-0.81;100.00;102721.69;5242927;28;20091;-73
2023/01/29 07:22:02;;;;;;;42.70;31.37;;;;;;;-0.81;100.00;102725.13;5242586;28;20101;-73
2023/01/29 07:24:34;;;;;;;40.13;29.52;;;;;;;-0.80;100.00;102726.94;5242693;28;20029;-73
2023/01/29 07:27:05;;;;;;;42.33;30.77;;;;;;;-0.78;100.00;102729.59;5242799;28;20536;-73
2023/01/29 07:29:36;;;;;;;41.17;29.73;;;;;;;-0.78;100.00;102727.03;5242424;28;20040;-73
2023/01/29 07:32:08;;;;;;;41.37;29.77;;;;;;;-0.78;100.00;102716.78;5241779;28;20084;-73
2023/01/29 07:34:39;;;;;;;39.60;28.73;;;;;;;-0.75;100.00;102724.66;5243429;28;20030;-73
2023/01/29 07:37:10;;;;;;;38.47;29.17;;;;;;;-0.71;100.00;102728.31;5242686;28;20099;-73
2023/01/29 07:39:42;;;;;;;37.97;29.10;;;;;;;-0.71;100.00;102715.50;5242331;28;20022;-74
2023/01/29 07:42:13;;;;;;;40.63;29.90;;;;;;;-0.73;99.83;102705.16;5241369;28;20037;-74
2023/01/29 07:44:44;;;;;;;41.20;29.10;;;;;;;-0.69;99.83;102707.13;5242416;28;20037;-74
2023/01/29 07:47:16;;;;;;;43.23;29.80;;;;;;;-0.69;100.00;102703.66;5242056;28;20512;-73
2023/01/29 07:49:47;;;;;;;41.90;30.53;;;;;;;-0.69;100.00;102711.34;5242639;28;20075;-74
2023/01/29 07:52:19;;;;;;;39.67;29.70;;;;;;;-0.67;99.67;102717.50;5242387;28;20109;-74
2023/01/29 07:54:50;;;;;;;42.97;30.03;;;;;;;-0.68;99.54;102726.81;5242684;28;20488;-72
2023/01/29 07:57:22;;;;;;;39.63;28.33;;;;;;;-0.66;99.45;102727.84;5243245;28;20048;-73
2023/01/29 07:59:53;;;;;;;42.93;29.60;;;;;;;-0.66;99.35;102721.78;5242273;28;20032;-73
2023/01/29 08:02:24;;;;;;;40.73;30.47;;;;;;;-0.64;99.26;102710.88;5241916;28;20034;-73
2023/01/29 08:04:56;;;;;;;41.73;29.90;;;;;;;-0.63;99.42;102710.09;5242477;28;20061;-73
2023/01/29 08:07:27;;;;;;;42.07;29.97;;;;;;;-0.60;99.38;102711.94;5242211;28;20095;-73
2023/01/29 08:09:58;;;;;;;38.70;28.03;;;;;;;-0.59;99.25;102708.63;5242069;28;20083;-73
2023/01/29 08:12:30;;;;;;;39.07;29.60;;;;;;;-0.56;99.00;102713.94;5242451;28;20037;-73
2023/01/29 08:15:01;;;;;;;38.10;28.50;;;;;;;-0.53;99.07;102709.00;5242355;28;20033;-73
2023/01/29 08:17:33;;;;;;;40.07;29.67;;;;;;;-0.53;98.58;102697.84;5241776;28;20041;-73
2023/01/29 08:20:06;;;;;;;39.80;28.63;;;;;;;-0.52;98.20;102705.63;5242083;28;20037;-72
2023/01/29 08:22:37;;;;;;;42.70;29.35;;;;;;;-0.49;98.58;102705.84;5242022;28;20095;-72
2023/01/29 08:25:09;;;;;;;40.43;28.23;;;;;;;-0.46;98.40;102706.03;5241893;28;20025;-72
2023/01/29 08:27:41;;;;;;;39.30;28.17;;;;;;;-0.45;98.27;102700.13;5242048;28;20040;-71
2023/01/29 08:30:12;;;;;;;41.42;29.13;;;;;;;-0.43;98.08;102695.97;5242624;28;20457;-72
2023/01/29 08:32:44;;;;;;;39.23;29.67;;;;;;;-0.44;98.00;102683.94;5240981;28;20445;-72
2023/01/29 08:35:15;;;;;;;45.77;29.30;;;;;;;-0.42;97.99;102690.06;5243803;28;20123;-72
2023/01/29 08:38:01;;;;;;;37.70;28.57;;;;;;;-0.39;97.86;102686.81;5241501;28;20061;-72
2023/01/29 08:40:33;;;;;;;37.42;27.58;;;;;;;-0.38;97.81;102683.47;5242032;28;20373;-72
2023/01/29 08:43:06;;;;;;;36.87;27.13;;;;;;;-0.35;97.89;102682.75;5242670;28;20034;-72
2023/01/29 08:45:41;;;;;;;35.95;26.02;;;;;;;-0.35;97.13;102672.50;5245905;28;20030;-72
2023/01/29 08:48:12;;;;;;;42.08;27.23;;;;;;;-0.34;97.61;102674.28;5245396;28;20052;-72
2023/01/29 08:50:43;;;;;;;37.47;27.30;;;;;;;-0.33;97.21;102661.56;5246317;28;20049;-72
2023/01/29 08:53:15;;;;;;;35.50;26.90;;;;;;;-0.29;97.21;102667.75;5245848;28;20029;-72
2023/01/29 08:55:46;;;;;;;39.57;28.57;;;;;;;-0.24;97.16;102674.94;5244415;28;20064;-72
2023/01/29 08:58:18;;;;;;;36.47;26.40;;;;;;;-0.25;97.19;102670.59;5245210;28;20025;-71
2023/01/29 09:00:49;;;;;;;40.50;26.83;;;;;;;-0.24;96.58;102674.03;5227432;28;20374;-71
2023/01/29 09:03:20;;;;;;;36.97;26.43;;;;;;;-0.21;96.78;102671.66;5244149;28;20037;-72
2023/01/29 09:05:52;;;;;;;35.60;26.07;;;;;;;-0.17;96.38;102673.66;5245992;28;20116;-72
2023/01/29 09:08:23;;;;;;;45.20;29.03;;;;;;;-0.15;96.45;102676.31;5245771;28;20033;-72
2023/01/29 09:10:58;;;;;;;35.70;24.97;;;;;;;-0.07;95.96;102665.72;5245446;28;20107;-72
2023/01/29 09:13:30;;;;;;;37.92;25.73;;;;;;;-0.06;95.49;102679.44;5244937;28;20029;-72
2023/01/29 09:16:03;;;;;;;35.10;26.80;;;;;;;-0.05;95.31;102676.06;5245323;28;20041;-73
2023/01/29 09:18:35;;;;;;;34.45;25.33;;;;;;;-0.02;95.24;102671.13;5244369;28;20033;-73
2023/01/29 09:21:06;;;;;;;34.17;25.00;;;;;;;0.02;94.88;102661.94;5243705;28;20167;-73
2023/01/29 09:23:38;;;;;;;33.67;24.80;;;;;;;0.01;95.31;102657.63;5244684;28;20037;-72
2023/01/29 09:26:09;;;;;;;33.10;23.93;;;;;;;0.04;94.92;102657.81;5227244;28;20116;-73
2023/01/29 09:28:41;;;;;;;38.30;25.40;;;;;;;0.08;94.89;102654.63;5245068;28;20149;-72
2023/01/29 09:31:12;;;;;;;32.57;24.40;;;;;;;0.09;94.59;102661.53;5244306;28;20030;-73
2023/01/29 09:33:43;;;;;;;33.03;23.87;;;;;;;0.12;94.57;102657.47;5245656;28;20040;-73
2023/01/29 09:36:15;;;;;;;34.90;24.27;;;;;;;0.17;94.48;102652.63;5246052;28;20135;-72
2023/01/29 09:38:46;;;;;;;33.83;25.00;;;;;;;0.22;94.31;102660.59;5248521;28;20036;-72
2023/01/29 09:42:07;;;;;;;35.03;23.87;;;;;;;0.28;93.56;102660.97;5249896;28;20033;-72
2023/01/29 09:45:08;;;;;;;30.77;23.48;;;;;;;0.31;93.51;102650.88;5259860;28;20052;-72
2023/01/29 09:47:40;;;;;;;34.95;23.95;;;;;;;0.33;93.43;102647.59;5258244;28;20046;-73
2023/01/29 09:50:17;;;;;;;34.10;23.43;;;;;;;0.33;92.55;102655.28;5252785;28;20025;-72
2023/01/29 09:53:11;;;;;;;31.70;23.05;;;;;;;0.39;92.84;102651.31;5248626;28;20064;-71
2023/01/29 09:55:49;;;;;;;33.08;24.35;;;;;;;0.37;92.51;102653.78;5244681;28;20045;-71
2023/01/29 09:58:30;;;;;;;33.53;23.98;;;;;;;0.51;92.11;102652.91;5244513;28;20381;-72
2023/01/29 10:01:08;;;;;;;31.05;22.75;;;;;;;0.41;91.97;102647.19;5244771;28;20112;-72
2023/01/29 10:03:57;;;;;;;31.85;23.08;;;;;;;0.46;91.84;102656.03;5243533;28;20036;-72
2023/01/29 10:06:50;;;;;;;30.98;21.15;;;;;;;0.49;92.06;102659.66;5244777;28;20402;-72
2023/01/29 10:09:36;;;;;;;31.17;22.30;;;;;;;0.52;91.67;102659.81;5245682;28;20434;-73
2023/01/29 10:12:10;;;;;;;31.25;22.55;;;;;;;0.51;91.59;102652.03;5245219;28;20276;-72
2023/01/29 10:15:00;;;;;;;31.17;22.08;;;;;;;0.59;91.58;102660.19;5243197;28;20172;-72
2023/01/29 10:17:56;;;;;;;33.08;22.25;;;;;;;0.64;91.09;102669.91;5245310;28;20038;-72
2023/01/29 10:20:51;;;;;;;31.88;21.65;;;;;;;0.64;90.88;102661.34;5243758;28;20561;-72
2023/01/29 10:23:29;;;;;;;33.85;23.55;;;;;;;0.63;90.85;102665.59;5243853;28;20029;-73
2023/01/29 10:26:01;;;;;;;30.40;22.58;;;;;;;0.68;90.63;102659.03;5243323;28;20021;-72
2023/01/29 10:28:47;;;;;;;30.17;22.60;;;;;;;0.69;90.46;102658.25;5244100;28;20440;-73
2023/01/29 10:31:33;;;;;;;30.15;21.52;;;;;;;0.76;90.15;102658.59;5244483;28;20025;-72
2023/01/29 10:34:22;;;;;;;35.13;22.33;;;;;;;0.81;89.99;102652.94;5244603;28;20021;-71
2023/01/29 10:36:54;;;;;;;35.80;22.65;;;;;;;0.80;89.91;102653.72;5243227;28;20076;-72
2023/01/29 10:39:29;;;;;;;28.40;21.13;;;;;;;0.85;89.72;102646.28;5243732;28;20477;-72
2023/01/29 10:42:19;;;;;;;31.10;24.45;;;;;;;0.89;89.10;102648.25;5244079;28;20029;-72
2023/01/29 10:45:21;;;;;;;31.75;21.73;;;;;;;0.99;89.13;102647.94;5243040;28;20041;-72
2023/01/29 10:48:24;;;;;;;28.98;20.80;;;;;;;0.98;88.65;102641.03;5243272;28;20029;-72
2023/01/29 10:51:24;;;;;;;31.70;23.15;;;;;;;1.07;88.73;102633.84;5243679;28;20484;-72
2023/01/29 10:54:07;;;;;;;28.80;20.90;;;;;;;1.11;88.11;102637.47;5244337;28;20030;-72
2023/01/29 10:56:51;;;;;;;27.73;20.17;;;;;;;1.17;87.68;102642.06;5243440;28;20037;-72
2023/01/29 10:59:42;;;;;;;29.98;20.13;;;;;;;1.25;87.38;102633.97;5243371;28;20030;-71
2023/01/29 11:02:18;;;;;;;27.73;20.58;;;;;;;1.21;86.69;102632.06;5243472;28;20377;-72
2023/01/29 11:04:49;;;;;;;28.67;21.67;;;;;;;1.23;86.88;102621.88;5243277;28;20135;-72
2023/01/29 11:07:22;;;;;;;27.07;20.83;;;;;;;1.31;86.88;102618.03;5243202;28;20045;-72
2023/01/29 11:10:12;;;;;;;28.40;19.67;;;;;;;1.33;86.24;102618.13;5241673;28;20037;-72
2023/01/29 11:12:46;;;;;;;26.13;19.38;;;;;;;1.37;85.96;102607.19;5241963;28;20473;-72
2023/01/29 11:15:25;;;;;;;24.98;18.35;;;;;;;1.44;85.83;102602.47;5241517;28;20041;-72
2023/01/29 11:18:12;;;;;;;28.77;18.83;;;;;;;1.44;85.34;102597.34;5243632;28;20081;-73
2023/01/29 11:20:44;;;;;;;24.58;18.85;;;;;;;1.50;84.91;102591.66;5243073;28;20028;-73
2023/01/29 11:23:27;;;;;;;23.55;17.75;;;;;;;1.51;84.84;102585.69;5242862;28;20028;-73
2023/01/29 11:25:59;;;;;;;27.27;20.03;;;;;;;1.57;84.34;102574.88;5242942;28;20059;-72
2023/01/29 11:28:35;;;;;;;24.92;17.67;;;;;;;1.55;84.10;102579.06;5242270;28;20287;-73
2023/01/29 11:31:15;;;;;;;27.20;18.23;;;;;;;1.68;83.60;102567.72;5242304;28;20037;-72
2023/01/29 11:33:49;;;;;;;25.33;19.60;;;;;;;1.61;83.52;102569.06;5242602;28;20033;-72
2023/01/29 11:36:31;;;;;;;23.15;17.98;;;;;;;1.73;84.00;102554.28;5242795;28;20045;-72
2023/01/29 11:39:15;;;;;;;23.42;17.92;;;;;;;1.77;83.15;102557.91;5242597;28;20036;-73
2023/01/29 11:42:02;;;;;;;26.73;19.38;;;;;;;1.75;82.45;102539.81;5243159;28;20034;-73
2023/01/29 11:44:41;;;;;;;23.48;18.05;;;;;;;1.80;82.81;102546.09;5242453;28;20095;-73
2023/01/29 11:47:15;;;;;;;25.92;18.02;;;;;;;1.90;82.34;102550.03;5241343;28;20139;-73
2023/01/29 11:49:55;;;;;;;24.05;18.10;;;;;;;1.91;82.47;102526.06;5241537;28;20057;-73
2023/01/29 11:52:39;;;;;;;25.75;17.98;;;;;;;1.91;81.53;102522.63;5242377;28;20030;-72
2023/01/29 11:55:18;;;;;;;28.25;20.23;;;;;;;2.00;81.77;102518.81;5242204;28;20030;-72
2023/01/29 11:58:03;;;;;;;24.30;18.67;;;;;;;1.94;81.47;102510.78;5242556;28;20424;-72
2023/01/29 12:00:35;;;;;;;26.60;19.92;;;;;;;1.93;81.35;102506.47;5241617;28;20096;-72
2023/01/29 12:03:15;;;;;;;27.63;21.60;;;;;;;1.86;81.70;102488.94;5242247;28;20034;-73
2023/01/29 12:06:21;;;;;;;27.02;19.55;;;;;;;1.99;82.08;102487.88;5240654;28;20079;-73
2023/01/29 12:08:56;;;;;;;22.10;18.52;;;;;;;1.92;81.70;102478.09;5241152;28;20041;-73
2023/01/29 12:11:30;;;;;;;24.58;18.02;;;;;;;2.04;81.80;102463.25;5241667;28;20079;-72
2023/01/29 12:14:05;;;;;;;25.45;18.35;;;;;;;2.19;81.96;102458.00;5241840;28;20041;-72
2023/01/29 12:16:45;;;;;;;28.48;19.65;;;;;;;2.29;81.53;102459.31;5241381;28;20087;-72